Scf Baltica — A8IA5 — position and weather

sailwx.info

Track history (hours):
 
Tides and Currents Weather Stations Pressure Air Temp Water Temp Dewpoint Dewpoint Depression Visibility Wind Speed Wind Dir Waves Ship Positions

Scf Baltica

Last reported at 2017-Feb-22 05:15 UTC. Time now 2017-Feb-22 08:34 UTC.
Position N 56°20' E 017°26'.

Length 250 m; draft 8.7 m.

Type: Ship. MMSI: 636012813.

Date/timePositionNaut miles runAvg speedWind from/ knotsBaromVisibWave heightAir tempDewpointWater temp
2017-Feb-22 05:15N 56°20' E 017°26'710.4
2017-Feb-22 04:33N 56°16' E 017°16'1310.2
2017-Feb-22 03:20N 56°08' E 016°58'810.0
2017-Feb-22 02:33N 56°03' E 016°47'10 9.9
2017-Feb-22 01:33N 55°58' E 016°32'10 9.7
2017-Feb-22 00:33N 55°53' E 016°17'10 9.7
2017-Feb-21 23:33N 55°48' E 016°02'10 9.7
2017-Feb-21 22:33N 55°43' E 015°47'1212.0
2017-Feb-21 21:33N 55°37' E 015°29'10 9.7
2017-Feb-21 20:33N 55°33' E 015°14'10 9.9
2017-Feb-21 19:33N 55°28' E 014°58'10 9.7
2017-Feb-21 18:33N 55°24' E 014°43'9 9.2
2017-Feb-21 17:33N 55°17' E 014°32'9 9.2
2017-Feb-21 16:33N 55°10' E 014°22'9 9.1
2017-Feb-21 15:32N 55°03' E 014°11'10 9.8
2017-Feb-21 14:30N 54°59' E 013°55'1010.1
2017-Feb-21 13:33N 54°56' E 013°39'2310.1
2017-Feb-21 11:16N 54°48' E 013°02'710.1
2017-Feb-21 10:33N 54°46' E 012°50'1010.4
2017-Feb-21 09:33N 54°41' E 012°34'1210.3
2017-Feb-21 08:26N 54°34' E 012°17'910.2
2017-Feb-21 07:33N 54°26' E 012°11'1414.1
2017-Feb-21 06:33N 54°25' E 011°47'1616.1
2017-Feb-21 05:33N 54°32' E 011°22'1615.6
2017-Feb-21 04:34N 54°40' E 010°58'1414.0
2017-Feb-21 03:33N 54°53' E 010°53'1515.5
2017-Feb-21 02:34N 55°08' E 011°03'11710.7
2017-Feb-20 15:34N 57°03' E 011°40'1010.5
2017-Feb-20 14:33N 57°13' E 011°34'1110.5
2017-Feb-20 13:33N 57°23' E 011°27'1010.2
2017-Feb-20 12:33N 57°31' E 011°16'1110.6
2017-Feb-20 11:34N 57°38' E 011°02'1110.8
2017-Feb-20 10:33N 57°46' E 010°47'1210.1
2017-Feb-20 09:21N 57°48' E 010°25'19312.7
2017-Feb-19 18:11N 55°21' E 006°38'813.5
2017-Feb-19 17:33N 55°13' E 006°39'1414.1
2017-Feb-19 16:33N 54°59' E 006°47'1513.8
2017-Feb-19 15:29N 54°46' E 006°56'6312.7
2017-Feb-19 10:33N 53°51' E 007°49'1313.4
2017-Feb-19 09:34N 53°41' E 008°05'8 4.0
2017-Feb-19 07:29N 53°34' E 008°10'0 0.0
2017-Feb-19 06:32N 53°34' E 008°10'0 0.0
2017-Feb-19 05:32N 53°34' E 008°10'0 0.0
2017-Feb-19 04:32N 53°34' E 008°10'0 0.0
2017-Feb-19 03:32N 53°34' E 008°10'0 0.0
2017-Feb-19 02:32N 53°34' E 008°10'0 0.0
2017-Feb-19 01:29N 53°34' E 008°10'0 0.0
2017-Feb-19 00:32N 53°34' E 008°10'0 0.0
2017-Feb-18 23:29N 53°34' E 008°10'0 0.0
2017-Feb-18 22:23N 53°34' E 008°10'0 0.0
2017-Feb-18 21:29N 53°34' E 008°10'0 0.0
2017-Feb-18 20:32N 53°34' E 008°10'0 0.0
2017-Feb-18 19:29N 53°34' E 008°10'0 0.0
2017-Feb-18 18:32N 53°34' E 008°10'0 0.0
2017-Feb-18 17:32N 53°34' E 008°10'0 0.0
2017-Feb-18 16:29N 53°34' E 008°10'0 0.0
2017-Feb-18 15:32N 53°34' E 008°10'0 0.0
2017-Feb-18 14:32N 53°34' E 008°10'0 0.0
2017-Feb-18 13:23N 53°34' E 008°10'0 0.0
2017-Feb-18 12:32N 53°34' E 008°10'0 0.0
2017-Feb-18 11:29N 53°34' E 008°10'0 0.0
2017-Feb-18 10:32N 53°34' E 008°10'0 0.0
2017-Feb-18 09:29N 53°34' E 008°10'1 1.0
2017-Feb-18 08:33N 53°35' E 008°10'7 7.1
2017-Feb-18 07:33N 53°41' E 008°05'9 8.6
2017-Feb-18 06:33N 53°48' E 007°58'9 9.2
2017-Feb-18 05:32N 53°53' E 007°44'2510.8
2017-Feb-18 03:13N 54°15' E 007°22'3311.6
2017-Feb-18 00:25N 54°44' E 006°57'1112.7
2017-Feb-17 23:33N 54°54' E 006°51'1312.7
2017-Feb-17 22:34N 55°06' E 006°43'1212.2
2017-Feb-17 21:33N 55°18' E 006°36'5312.1
2017-Feb-17 17:09N 56°11' E 006°50'812.5
2017-Feb-17 16:32N 56°18' E 006°52'15110.8
2017-Feb-17 02:33N 57°50' E 010°33'1110.8
2017-Feb-17 01:33N 57°46' E 010°51'1211.9
2017-Feb-17 00:33N 57°37' E 011°07'1212.0
2017-Feb-16 23:33N 57°30' E 011°24'1212.0
2017-Feb-16 22:33N 57°18' E 011°32'11710.5
2017-Feb-16 11:25N 55°22' E 011°02'1011.4
2017-Feb-16 10:32N 55°12' E 011°06'1111.0
2017-Feb-16 09:33N 55°02' E 010°60'1111.2
2017-Feb-16 08:34N 54°52' E 010°50'1111.4
2017-Feb-16 07:34N 54°41' E 010°47'1111.0
2017-Feb-16 06:34N 54°36' E 011°04'1111.2
2017-Feb-16 05:33N 54°33' E 011°23'1211.7
2017-Feb-16 04:34N 54°28' E 011°41'1111.1
2017-Feb-16 03:33N 54°26' E 011°60'9 8.6
2017-Feb-16 02:34N 54°30' E 012°13'9 9.5
2017-Feb-16 01:34N 54°38' E 012°22'6 6.3
2017-Feb-16 00:34N 54°42' E 012°31'6 6.3
2017-Feb-15 23:32N 54°45' E 012°41'1110.5
2017-Feb-15 22:28N 54°50' E 012°58'1412.4
2017-Feb-15 21:19N 54°55' E 013°21'1012.8
2017-Feb-15 20:32N 54°59' E 013°37'1212.9
2017-Feb-15 19:34N 55°03' E 013°58'1212.1
2017-Feb-15 18:34N 55°11' E 014°14'1312.8
2017-Feb-15 17:33N 55°21' E 014°28'1212.4
2017-Feb-15 16:33N 55°29' E 014°45'1413.0
2017-Feb-15 15:30N 55°35' E 015°07'1312.9
2017-Feb-15 14:30N 55°39' E 015°28'5012.6
2017-Feb-15 10:31N 55°52' E 016°54'1212.3
2017-Feb-15 09:33N 55°54' E 017°15'29812.4
2017-Feb-14 09:30N 59°38' E 023°23'9513.2
2017-Feb-14 02:19N 60°00' E 026°26'912.4
2017-Feb-14 01:33N 60°01' E 026°45'1211.9
2017-Feb-14 00:32N 60°01' E 027°09'1512.8
2017-Feb-13 23:24N 60°09' E 027°34'1011.6
2017-Feb-13 22:33N 60°11' E 027°54'1010.5
2017-Feb-13 21:33N 60°08' E 028°14'9 9.1
2017-Feb-13 20:33N 60°09' E 028°32'4 4.3
2017-Feb-13 19:33N 60°10' E 028°40'0 0.2
2017-Feb-13 18:30N 60°10' E 028°40'0 0.2
2017-Feb-13 17:33N 60°10' E 028°40'1 1.3
2017-Feb-13 16:33N 60°10' E 028°42'6 5.6
2017-Feb-13 15:26N 60°16' E 028°47'5 5.1
2017-Feb-13 14:33N 60°20' E 028°42'0 0.0
2017-Feb-12 08:33N 60°20' E 028°42'3 2.4
2017-Feb-12 07:28N 60°18' E 028°44'6 6.1
2017-Feb-12 06:33N 60°12' E 028°45'7 6.6
2017-Feb-12 05:33N 60°09' E 028°34'  
Track history (hours):
 
Tides and Currents Weather Stations Pressure Air Temp Water Temp Dewpoint Dewpoint Depression Visibility Wind Speed Wind Dir Waves Ship Positions

Scf Baltica

Last reported at 2017-Feb-22 05:15 UTC. Time now 2017-Feb-22 08:34 UTC.
Position N 56°20' E 017°26'.

Length 250 m; draft 8.7 m.

Type: Ship. MMSI: 636012813.

Date/timePositionNaut miles runAvg speedWind from/ knotsBaromVisibWave heightAir tempDewpointWater temp
2017-Feb-22 05:15N 56°20' E 017°26'710.4
2017-Feb-22 04:33N 56°16' E 017°16'1310.2
2017-Feb-22 03:20N 56°08' E 016°58'810.0
2017-Feb-22 02:33N 56°03' E 016°47'10 9.9
2017-Feb-22 01:33N 55°58' E 016°32'10 9.7
2017-Feb-22 00:33N 55°53' E 016°17'10 9.7
2017-Feb-21 23:33N 55°48' E 016°02'10 9.7
2017-Feb-21 22:33N 55°43' E 015°47'1212.0
2017-Feb-21 21:33N 55°37' E 015°29'10 9.7
2017-Feb-21 20:33N 55°33' E 015°14'10 9.9
2017-Feb-21 19:33N 55°28' E 014°58'10 9.7
2017-Feb-21 18:33N 55°24' E 014°43'9 9.2
2017-Feb-21 17:33N 55°17' E 014°32'9 9.2
2017-Feb-21 16:33N 55°10' E 014°22'9 9.1
2017-Feb-21 15:32N 55°03' E 014°11'10 9.8
2017-Feb-21 14:30N 54°59' E 013°55'1010.1
2017-Feb-21 13:33N 54°56' E 013°39'2310.1
2017-Feb-21 11:16N 54°48' E 013°02'710.1
2017-Feb-21 10:33N 54°46' E 012°50'1010.4
2017-Feb-21 09:33N 54°41' E 012°34'1210.3
2017-Feb-21 08:26N 54°34' E 012°17'910.2
2017-Feb-21 07:33N 54°26' E 012°11'1414.1
2017-Feb-21 06:33N 54°25' E 011°47'1616.1
2017-Feb-21 05:33N 54°32' E 011°22'1615.6
2017-Feb-21 04:34N 54°40' E 010°58'1414.0
2017-Feb-21 03:33N 54°53' E 010°53'1515.5
2017-Feb-21 02:34N 55°08' E 011°03'11710.7
2017-Feb-20 15:34N 57°03' E 011°40'1010.5
2017-Feb-20 14:33N 57°13' E 011°34'1110.5
2017-Feb-20 13:33N 57°23' E 011°27'1010.2
2017-Feb-20 12:33N 57°31' E 011°16'1110.6
2017-Feb-20 11:34N 57°38' E 011°02'1110.8
2017-Feb-20 10:33N 57°46' E 010°47'1210.1
2017-Feb-20 09:21N 57°48' E 010°25'19312.7
2017-Feb-19 18:11N 55°21' E 006°38'813.5
2017-Feb-19 17:33N 55°13' E 006°39'1414.1
2017-Feb-19 16:33N 54°59' E 006°47'1513.8
2017-Feb-19 15:29N 54°46' E 006°56'6312.7
2017-Feb-19 10:33N 53°51' E 007°49'1313.4
2017-Feb-19 09:34N 53°41' E 008°05'8 4.0
2017-Feb-19 07:29N 53°34' E 008°10'0 0.0
2017-Feb-19 06:32N 53°34' E 008°10'0 0.0
2017-Feb-19 05:32N 53°34' E 008°10'0 0.0
2017-Feb-19 04:32N 53°34' E 008°10'0 0.0
2017-Feb-19 03:32N 53°34' E 008°10'0 0.0
2017-Feb-19 02:32N 53°34' E 008°10'0 0.0
2017-Feb-19 01:29N 53°34' E 008°10'0 0.0
2017-Feb-19 00:32N 53°34' E 008°10'0 0.0
2017-Feb-18 23:29N 53°34' E 008°10'0 0.0
2017-Feb-18 22:23N 53°34' E 008°10'0 0.0
2017-Feb-18 21:29N 53°34' E 008°10'0 0.0
2017-Feb-18 20:32N 53°34' E 008°10'0 0.0
2017-Feb-18 19:29N 53°34' E 008°10'0 0.0
2017-Feb-18 18:32N 53°34' E 008°10'0 0.0
2017-Feb-18 17:32N 53°34' E 008°10'0 0.0
2017-Feb-18 16:29N 53°34' E 008°10'0 0.0
2017-Feb-18 15:32N 53°34' E 008°10'0 0.0
2017-Feb-18 14:32N 53°34' E 008°10'0 0.0
2017-Feb-18 13:23N 53°34' E 008°10'0 0.0
2017-Feb-18 12:32N 53°34' E 008°10'0 0.0
2017-Feb-18 11:29N 53°34' E 008°10'0 0.0
2017-Feb-18 10:32N 53°34' E 008°10'0 0.0
2017-Feb-18 09:29N 53°34' E 008°10'1 1.0
2017-Feb-18 08:33N 53°35' E 008°10'7 7.1
2017-Feb-18 07:33N 53°41' E 008°05'9 8.6
2017-Feb-18 06:33N 53°48' E 007°58'9 9.2
2017-Feb-18 05:32N 53°53' E 007°44'2510.8
2017-Feb-18 03:13N 54°15' E 007°22'3311.6
2017-Feb-18 00:25N 54°44' E 006°57'1112.7
2017-Feb-17 23:33N 54°54' E 006°51'1312.7
2017-Feb-17 22:34N 55°06' E 006°43'1212.2
2017-Feb-17 21:33N 55°18' E 006°36'5312.1
2017-Feb-17 17:09N 56°11' E 006°50'812.5
2017-Feb-17 16:32N 56°18' E 006°52'15110.8
2017-Feb-17 02:33N 57°50' E 010°33'1110.8
2017-Feb-17 01:33N 57°46' E 010°51'1211.9
2017-Feb-17 00:33N 57°37' E 011°07'1212.0
2017-Feb-16 23:33N 57°30' E 011°24'1212.0
2017-Feb-16 22:33N 57°18' E 011°32'11710.5
2017-Feb-16 11:25N 55°22' E 011°02'1011.4
2017-Feb-16 10:32N 55°12' E 011°06'1111.0
2017-Feb-16 09:33N 55°02' E 010°60'1111.2
2017-Feb-16 08:34N 54°52' E 010°50'1111.4
2017-Feb-16 07:34N 54°41' E 010°47'1111.0
2017-Feb-16 06:34N 54°36' E 011°04'1111.2
2017-Feb-16 05:33N 54°33' E 011°23'1211.7
2017-Feb-16 04:34N 54°28' E 011°41'1111.1
2017-Feb-16 03:33N 54°26' E 011°60'9 8.6
2017-Feb-16 02:34N 54°30' E 012°13'9 9.5
2017-Feb-16 01:34N 54°38' E 012°22'6 6.3
2017-Feb-16 00:34N 54°42' E 012°31'6 6.3
2017-Feb-15 23:32N 54°45' E 012°41'1110.5
2017-Feb-15 22:28N 54°50' E 012°58'1412.4
2017-Feb-15 21:19N 54°55' E 013°21'1012.8
2017-Feb-15 20:32N 54°59' E 013°37'1212.9
2017-Feb-15 19:34N 55°03' E 013°58'1212.1
2017-Feb-15 18:34N 55°11' E 014°14'1312.8
2017-Feb-15 17:33N 55°21' E 014°28'1212.4
2017-Feb-15 16:33N 55°29' E 014°45'1413.0
2017-Feb-15 15:30N 55°35' E 015°07'1312.9
2017-Feb-15 14:30N 55°39' E 015°28'5012.6
2017-Feb-15 10:31N 55°52' E 016°54'1212.3
2017-Feb-15 09:33N 55°54' E 017°15'29812.4
2017-Feb-14 09:30N 59°38' E 023°23'9513.2
2017-Feb-14 02:19N 60°00' E 026°26'912.4
2017-Feb-14 01:33N 60°01' E 026°45'1211.9
2017-Feb-14 00:32N 60°01' E 027°09'1512.8
2017-Feb-13 23:24N 60°09' E 027°34'1011.6
2017-Feb-13 22:33N 60°11' E 027°54'1010.5
2017-Feb-13 21:33N 60°08' E 028°14'9 9.1
2017-Feb-13 20:33N 60°09' E 028°32'4 4.3
2017-Feb-13 19:33N 60°10' E 028°40'0 0.2
2017-Feb-13 18:30N 60°10' E 028°40'0 0.2
2017-Feb-13 17:33N 60°10' E 028°40'1 1.3
2017-Feb-13 16:33N 60°10' E 028°42'6 5.6
2017-Feb-13 15:26N 60°16' E 028°47'5 5.1
2017-Feb-13 14:33N 60°20' E 028°42'0 0.0
2017-Feb-12 08:33N 60°20' E 028°42'3 2.4
2017-Feb-12 07:28N 60°18' E 028°44'6 6.1
2017-Feb-12 06:33N 60°12' E 028°45'7 6.6
2017-Feb-12 05:33N 60°09' E 028°34'  

Dump ship's entire track history